createdAt,value
2022-11-01T00:03:23.456Z,44.10
2022-11-01T00:08:25.958Z,45.63
2022-11-01T00:13:28.303Z,43.67
2022-11-01T00:18:30.693Z,45.37
2022-11-01T00:23:33.352Z,44.50
2022-11-01T00:28:35.841Z,44.90
2022-11-01T00:33:39.402Z,44.17
2022-11-01T00:38:42.026Z,42.50
2022-11-01T00:43:44.333Z,42.40
2022-11-01T00:48:46.697Z,44.67
2022-11-01T00:53:49.113Z,39.43
2022-11-01T00:58:51.442Z,42.10
2022-11-01T01:03:53.772Z,42.83
2022-11-01T01:09:00.477Z,39.23
2022-11-01T01:14:03.020Z,37.80
2022-11-01T01:19:05.375Z,38.37
2022-11-01T01:24:07.728Z,37.83
2022-11-01T01:29:10.139Z,36.63
2022-11-01T01:34:12.455Z,37.13
2022-11-01T01:39:14.942Z,39.70
2022-11-01T01:44:42.294Z,39.30
2022-11-01T01:49:46.241Z,40.93
2022-11-01T01:54:51.144Z,39.10
2022-11-01T01:59:53.762Z,39.33
2022-11-01T02:05:06.348Z,43.80
2022-11-01T02:10:09.540Z,39.77
2022-11-01T02:15:13.679Z,41.50
2022-11-01T02:20:21.937Z,38.53
2022-11-01T02:25:37.128Z,42.67
2022-11-01T02:30:51.712Z,43.20
2022-11-01T02:36:14.279Z,41.50
2022-11-01T02:41:44.873Z,41.33
2022-11-01T02:47:03.385Z,39.90
2022-11-01T02:52:08.841Z,41.40
2022-11-01T02:57:17.278Z,41.80
2022-11-01T03:02:41.736Z,41.27
2022-11-01T03:07:48.329Z,39.93
2022-11-01T03:13:09.921Z,39.60
2022-11-01T03:18:18.493Z,39.27
2022-11-01T03:23:30.351Z,39.60
2022-11-01T03:28:39.756Z,39.23
2022-11-01T03:33:47.845Z,40.43
2022-11-01T03:38:56.418Z,37.00
2022-11-01T03:43:59.939Z,39.27
2022-11-01T03:49:02.335Z,37.47
2022-11-01T03:54:06.521Z,42.07
2022-11-01T03:59:10.670Z,38.23
2022-11-01T04:04:13.064Z,41.43
2022-11-01T04:09:15.448Z,41.57
2022-11-01T04:14:36.438Z,41.90
2022-11-01T04:19:57.365Z,41.30
2022-11-01T04:24:59.675Z,39.13
2022-11-01T04:30:02.253Z,42.53
2022-11-01T04:35:05.036Z,42.23
2022-11-01T04:40:07.976Z,36.70
2022-11-01T04:45:11.261Z,34.67
2022-11-01T04:50:13.683Z,37.20
2022-11-01T04:55:16.064Z,35.80
2022-11-01T05:00:18.535Z,39.40
2022-11-01T05:05:20.947Z,36.03
2022-11-01T05:10:23.271Z,35.37
2022-11-01T05:15:25.754Z,40.00
2022-11-01T05:20:29.237Z,39.73
2022-11-01T05:25:35.485Z,39.93
2022-11-01T05:30:42.073Z,42.07
2022-11-01T05:35:44.428Z,40.43
2022-11-01T05:40:46.883Z,42.60
2022-11-01T05:45:49.274Z,41.83
2022-11-01T05:50:51.611Z,43.63
2022-11-01T05:55:56.717Z,43.37
2022-11-01T06:01:00.551Z,41.37
2022-11-01T06:06:04.000Z,42.10
2022-11-01T06:11:07.007Z,44.70
2022-11-01T06:16:09.392Z,46.30
2022-11-01T06:21:11.824Z,43.20
2022-11-01T06:26:14.699Z,45.70
2022-11-01T06:31:17.121Z,40.57
2022-11-01T06:36:19.551Z,40.67
2022-11-01T06:41:21.917Z,40.93
2022-11-01T06:46:24.298Z,40.20
2022-11-01T06:51:27.367Z,44.63
2022-11-01T06:56:29.744Z,42.20
2022-11-01T07:01:32.588Z,45.07
2022-11-01T07:06:35.121Z,39.73
2022-11-01T07:11:37.679Z,60.03
2022-11-01T07:16:40.172Z,43.97
2022-11-01T07:21:42.572Z,41.87
2022-11-01T07:26:45.039Z,38.50
2022-11-01T07:31:48.071Z,39.17
2022-11-01T07:36:53.166Z,39.27
2022-11-01T07:41:55.635Z,36.53
2022-11-01T07:46:58.057Z,39.40
2022-11-01T07:52:02.935Z,38.53
2022-11-01T07:57:05.960Z,39.27
2022-11-01T08:02:09.447Z,35.63
2022-11-01T08:07:12.033Z,37.10
2022-11-01T08:12:14.519Z,38.03
2022-11-01T08:17:16.959Z,37.40
2022-11-01T08:22:19.462Z,36.73
2022-11-01T08:27:21.851Z,38.67
2022-11-01T08:32:24.502Z,37.93
2022-11-01T08:37:26.906Z,38.33
2022-11-01T08:42:29.279Z,35.83
2022-11-01T08:47:33.594Z,40.87
2022-11-01T08:52:36.422Z,41.83
2022-11-01T08:57:41.602Z,53.33
2022-11-01T09:02:44.198Z,50.30
2022-11-01T09:07:46.611Z,40.97
2022-11-01T09:12:49.060Z,46.27
2022-11-01T09:17:51.531Z,44.17
2022-11-01T09:22:53.925Z,45.20
2022-11-01T09:27:57.886Z,44.33
2022-11-01T09:33:05.187Z,41.67
2022-11-01T09:38:07.883Z,45.27
2022-11-01T09:43:19.103Z,45.47
2022-11-01T09:48:21.649Z,52.13
2022-11-01T09:53:27.734Z,47.60
2022-11-01T09:58:42.075Z,44.87
2022-11-01T10:04:11.251Z,50.83
2022-11-01T10:09:38.596Z,47.17
2022-11-01T10:14:59.741Z,49.07
2022-11-01T10:20:04.525Z,45.43
2022-11-01T10:25:21.337Z,48.70
2022-11-01T10:30:24.207Z,45.80
2022-11-01T10:35:35.613Z,46.13
2022-11-01T10:40:43.429Z,43.27
2022-11-01T10:45:49.914Z,46.63
2022-11-01T10:50:54.663Z,49.93
2022-11-01T10:56:01.868Z,55.03
2022-11-01T11:01:07.294Z,54.30
2022-11-01T11:06:13.693Z,54.43
2022-11-01T11:11:18.673Z,54.80
2022-11-01T11:16:46.778Z,58.60
2022-11-01T11:21:51.708Z,56.63
2022-11-01T11:26:57.924Z,57.13
2022-11-01T11:32:01.300Z,66.80
2022-11-01T11:37:06.684Z,72.37
2022-11-01T11:42:19.053Z,62.03
2022-11-01T11:47:34.605Z,59.37
2022-11-01T11:52:39.839Z,56.33
2022-11-01T11:57:54.296Z,55.13
2022-11-01T12:02:56.757Z,59.27
2022-11-01T12:07:59.356Z,63.33
2022-11-01T12:13:04.499Z,55.33
2022-11-01T12:18:15.728Z,56.87
2022-11-01T12:23:32.911Z,51.57
2022-11-01T12:29:01.117Z,54.07
2022-11-01T12:34:26.625Z,53.80
2022-11-01T12:39:57.672Z,57.07
2022-11-01T12:45:11.937Z,57.40
2022-11-01T12:50:22.480Z,56.60
2022-11-01T12:55:43.899Z,62.53
2022-11-01T13:00:55.420Z,59.37
2022-11-01T13:06:15.456Z,57.40
2022-11-01T13:12:04.686Z,58.57
2022-11-01T13:17:38.586Z,58.73
2022-11-01T13:22:46.343Z,54.87
2022-11-01T13:28:16.056Z,53.67
2022-11-01T13:33:28.336Z,55.87
2022-11-01T13:38:51.800Z,55.03
2022-11-01T13:44:11.202Z,53.90
2022-11-01T13:49:28.333Z,73.87
2022-11-01T13:54:48.527Z,67.90
2022-11-01T13:59:55.668Z,117.03
2022-11-01T14:04:59.150Z,94.13
2022-11-01T14:10:11.794Z,59.77
2022-11-01T14:15:22.123Z,52.43
2022-11-01T14:20:33.367Z,60.43
2022-11-01T14:25:35.757Z,54.60
2022-11-01T14:30:43.399Z,52.10
2022-11-01T14:35:52.579Z,48.63
2022-11-01T14:40:59.821Z,57.90
2022-11-01T14:46:13.447Z,67.73
2022-11-01T14:51:40.265Z,71.27
2022-11-01T14:56:49.825Z,106.90
2022-11-01T15:02:01.163Z,96.30
2022-11-01T15:07:27.828Z,89.77
2022-11-01T15:12:54.345Z,83.70
2022-11-01T15:18:06.337Z,86.10
2022-11-01T15:23:18.127Z,88.13
2022-11-01T15:28:26.249Z,97.90
2022-11-01T15:33:32.577Z,113.60
2022-11-01T15:38:48.089Z,99.83
2022-11-01T15:43:54.228Z,126.73
2022-11-01T15:49:01.245Z,123.57
2022-11-01T15:54:13.092Z,100.50
2022-11-01T15:59:22.255Z,101.70
2022-11-01T16:04:28.823Z,107.07
2022-11-01T16:09:52.092Z,105.93
2022-11-01T16:14:56.572Z,96.73
2022-11-01T16:19:59.532Z,106.33
2022-11-01T16:25:03.103Z,96.47
2022-11-01T16:30:10.501Z,106.63
2022-11-01T16:35:34.046Z,99.83
2022-11-01T16:40:38.342Z,112.10
2022-11-01T16:45:41.499Z,95.67
2022-11-01T16:50:43.782Z,103.23
2022-11-01T16:55:46.137Z,108.50
2022-11-01T17:00:56.667Z,109.97
2022-11-01T17:05:59.282Z,119.43
2022-11-01T17:11:01.651Z,151.13
2022-11-01T17:16:06.059Z,165.67
2022-11-01T17:21:11.667Z,148.10
2022-11-01T17:26:15.727Z,163.73
2022-11-01T17:31:18.511Z,152.13
2022-11-01T17:36:20.864Z,128.50
2022-11-01T17:41:23.256Z,126.30
2022-11-01T17:46:26.317Z,120.00
2022-11-01T17:51:28.703Z,131.60
2022-11-01T17:56:31.354Z,153.20
2022-11-01T18:01:33.902Z,164.03
2022-11-01T18:06:36.407Z,143.93
2022-11-01T18:12:05.923Z,129.67
2022-11-01T18:17:33.497Z,125.90
2022-11-01T18:22:51.485Z,124.93
2022-11-01T18:27:56.098Z,119.53
2022-11-01T18:33:05.754Z,119.57
2022-11-01T18:38:10.957Z,120.10
2022-11-01T18:43:13.274Z,109.10
2022-11-01T18:48:20.157Z,108.87
2022-11-01T18:53:23.761Z,102.17
2022-11-01T18:58:29.359Z,104.63
2022-11-01T19:03:32.084Z,101.57
2022-11-01T19:08:35.577Z,115.37
2022-11-01T19:13:38.067Z,128.80
2022-11-01T19:18:43.383Z,117.33
2022-11-01T19:23:51.511Z,94.67
2022-11-01T19:28:54.134Z,106.87
2022-11-01T19:34:03.734Z,100.13
2022-11-01T19:39:26.339Z,98.10
2022-11-01T19:44:30.714Z,87.10
2022-11-01T19:49:36.320Z,93.03
2022-11-01T19:54:42.541Z,94.57
2022-11-01T19:59:44.916Z,85.67
2022-11-01T20:04:56.328Z,96.57
2022-11-01T20:09:59.047Z,99.63
2022-11-01T20:15:01.502Z,96.10
2022-11-01T20:20:04.393Z,66.47
2022-11-01T20:25:07.044Z,72.47
2022-11-01T20:30:10.245Z,79.43
2022-11-01T20:35:12.958Z,95.37
2022-11-01T20:40:17.220Z,85.70
2022-11-01T20:45:19.575Z,87.50
2022-11-01T20:50:21.856Z,92.50
2022-11-01T20:55:24.146Z,98.40
2022-11-01T21:00:27.125Z,81.03
2022-11-01T21:05:31.244Z,82.07
2022-11-01T21:10:35.963Z,74.37
2022-11-01T21:15:39.725Z,71.07
2022-11-01T21:20:45.215Z,66.37
2022-11-01T21:25:52.109Z,63.03
2022-11-01T21:30:55.082Z,58.60
2022-11-01T21:35:57.374Z,56.73
2022-11-01T21:40:59.897Z,54.10
2022-11-01T21:46:02.290Z,49.67
2022-11-01T21:51:07.339Z,43.93
2022-11-01T21:56:09.695Z,44.23
2022-11-01T22:01:12.065Z,40.23
2022-11-01T22:06:14.423Z,37.93
2022-11-01T22:11:19.475Z,33.60
2022-11-01T22:16:25.938Z,34.37
2022-11-01T22:21:29.056Z,30.10
2022-11-01T22:26:31.560Z,38.07
2022-11-01T22:31:33.942Z,36.77
2022-11-01T22:36:37.717Z,38.00
2022-11-01T22:41:42.310Z,31.03
2022-11-01T22:46:56.893Z,25.47
2022-11-01T22:52:24.005Z,22.97
2022-11-01T22:57:31.865Z,22.87
2022-11-01T23:02:41.294Z,22.47
2022-11-01T23:07:50.117Z,24.53
2022-11-01T23:13:19.502Z,26.27
2022-11-01T23:18:24.899Z,26.17
2022-11-01T23:23:27.963Z,26.23
2022-11-01T23:28:35.027Z,22.10
2022-11-01T23:33:43.427Z,17.43
2022-11-01T23:38:52.977Z,16.77
2022-11-01T23:43:57.856Z,20.80
2022-11-01T23:49:23.486Z,20.13
2022-11-01T23:54:28.942Z,19.13
2022-11-01T23:59:31.896Z,19.27
